Time;durP1;ratioP1;P1;durP2;ratioP2;P2;SDS_P1;SDS_P2;PMS_P1;PMS_P2;Temp;Humidity;BMP_temperature;BMP_pressure;BME280_temperature;BME280_humidity;BME280_pressure;Samples;Min_cycle;Max_cycle;Signal;HPM_P1;HPM_P2
2022/10/31 00:00:50;;;;;;;17.42;8.38;;;;;;;;;;4968081;28;20375;-63
2022/10/31 00:03:17;;;;;;;17.88;8.85;;;;;;;;;;4969608;28;20336;-63
2022/10/31 00:05:44;;;;;;;13.82;8.38;;;;;;;;;;4969947;28;20359;-63
2022/10/31 00:08:09;;;;;;;14.98;7.68;;;;;;;;;;4934325;28;20395;-63
2022/10/31 00:10:37;;;;;;;16.92;8.57;;;;;;;;;;4967597;28;20115;-63
2022/10/31 00:13:03;;;;;;;15.70;7.93;;;;;;;;;;4967779;28;20360;-63
2022/10/31 00:15:28;;;;;;;13.23;7.18;;;;;;;;;;4967637;28;20033;-63
2022/10/31 00:17:53;;;;;;;17.60;7.95;;;;;;;;;;4969055;28;20310;-63
2022/10/31 00:20:19;;;;;;;20.63;8.65;;;;;;;;;;4968301;28;20404;-63
2022/10/31 00:22:44;;;;;;;15.23;7.07;;;;;;;;;;4967890;28;20313;-63
2022/10/31 00:25:09;;;;;;;14.93;8.20;;;;;;;;;;4968027;28;20433;-63
2022/10/31 00:27:34;;;;;;;18.00;8.18;;;;;;;;;;4968021;28;20463;-63
2022/10/31 00:30:00;;;;;;;14.95;7.28;;;;;;;;;;4973017;28;20421;-63
2022/10/31 00:32:28;;;;;;;13.70;7.22;;;;;;;;;;4972092;28;20459;-63
2022/10/31 00:34:54;;;;;;;17.30;8.75;;;;;;;;;;4971847;28;20455;-64
2022/10/31 00:37:19;;;;;;;14.63;7.78;;;;;;;;;;4971441;28;20463;-63
2022/10/31 00:39:45;;;;;;;18.67;7.53;;;;;;;;;;4971144;28;20441;-63
2022/10/31 00:42:10;;;;;;;13.73;6.95;;;;;;;;;;4971457;28;20539;-63
2022/10/31 00:44:35;;;;;;;13.95;7.50;;;;;;;;;;4971401;28;20388;-63
2022/10/31 00:47:01;;;;;;;12.80;6.70;;;;;;;;;;4971530;28;20356;-63
2022/10/31 00:49:26;;;;;;;14.20;8.18;;;;;;;;;;4972028;28;20336;-63
2022/10/31 00:51:51;;;;;;;16.13;7.68;;;;;;;;;;4971423;28;20340;-63
2022/10/31 00:54:17;;;;;;;13.93;7.60;;;;;;;;;;4971012;28;20344;-63
2022/10/31 00:56:42;;;;;;;14.68;7.68;;;;;;;;;;4971201;28;20345;-63
2022/10/31 00:59:07;;;;;;;15.07;7.18;;;;;;;;;;4971335;28;20436;-63
2022/10/31 01:01:33;;;;;;;16.05;7.90;;;;;;;;;;4973351;28;20340;-63
2022/10/31 01:03:58;;;;;;;11.60;7.32;;;;;;;;;;4979414;28;20444;-63
2022/10/31 01:06:23;;;;;;;13.07;7.22;;;;;;;;;;4971160;28;20129;-63
2022/10/31 01:08:49;;;;;;;15.07;7.85;;;;;;;;;;4970862;28;20462;-63
2022/10/31 01:11:21;;;;;;;14.35;7.05;;;;;;;;;;4970684;28;20098;-64
2022/10/31 01:13:49;;;;;;;15.55;7.57;;;;;;;;;;4971341;28;20425;-64
2022/10/31 01:16:16;;;;;;;14.27;7.07;;;;;;;;;;4972400;28;20329;-63
2022/10/31 01:18:42;;;;;;;15.45;8.05;;;;;;;;;;4970936;28;20408;-63
2022/10/31 01:21:14;;;;;;;13.52;7.15;;;;;;;;;;4970694;28;20460;-63
2022/10/31 01:23:40;;;;;;;13.27;6.82;;;;;;;;;;4970738;28;20352;-63
2022/10/31 01:26:07;;;;;;;15.02;7.60;;;;;;;;;;4970580;28;20033;-63
2022/10/31 01:28:33;;;;;;;13.90;6.43;;;;;;;;;;4970629;28;20088;-63
2022/10/31 01:31:04;;;;;;;14.75;7.70;;;;;;;;;;4971407;28;20482;-64
2022/10/31 01:33:29;;;;;;;12.00;6.85;;;;;;;;;;4970050;28;20468;-63
2022/10/31 01:35:54;;;;;;;17.42;7.78;;;;;;;;;;4970385;28;20530;-63
2022/10/31 01:38:20;;;;;;;13.48;7.55;;;;;;;;;;4970756;28;20395;-63
2022/10/31 01:40:45;;;;;;;17.92;7.55;;;;;;;;;;4969119;28;20326;-63
2022/10/31 01:43:13;;;;;;;13.55;7.32;;;;;;;;;;4970349;28;20535;-63
2022/10/31 01:45:38;;;;;;;18.75;7.15;;;;;;;;;;4971746;28;20429;-63
2022/10/31 01:48:04;;;;;;;15.85;8.02;;;;;;;;;;4970270;28;20509;-63
2022/10/31 01:50:34;;;;;;;15.95;7.20;;;;;;;;;;4970188;28;20353;-63
2022/10/31 01:53:00;;;;;;;15.98;8.25;;;;;;;;;;4971875;28;20488;-63
2022/10/31 01:55:30;;;;;;;16.67;8.15;;;;;;;;;;4970021;28;20455;-63
2022/10/31 01:58:00;;;;;;;14.68;7.60;;;;;;;;;;4971145;28;20030;-63
2022/10/31 02:00:25;;;;;;;15.25;7.07;;;;;;;;;;4970128;28;20392;-63
2022/10/31 02:02:51;;;;;;;16.17;7.32;;;;;;;;;;4970102;28;20407;-64
2022/10/31 02:05:20;;;;;;;18.95;6.78;;;;;;;;;;4970010;28;20048;-63
2022/10/31 02:08:09;;;;;;;18.73;8.13;;;;;;;;;;4952058;28;20127;-64
2022/10/31 02:10:36;;;;;;;19.73;7.72;;;;;;;;;;4969797;28;20295;-63
2022/10/31 02:13:04;;;;;;;12.95;6.78;;;;;;;;;;4971390;28;20455;-63
2022/10/31 02:15:30;;;;;;;17.85;7.90;;;;;;;;;;4970928;28;20412;-63
2022/10/31 02:17:56;;;;;;;17.52;7.22;;;;;;;;;;4952872;28;20360;-63
2022/10/31 02:20:24;;;;;;;14.95;7.22;;;;;;;;;;4951928;28;20452;-63
2022/10/31 02:23:20;;;;;;;13.32;5.78;;;;;;;;;;4951904;28;20360;-64
2022/10/31 02:25:48;;;;;;;12.18;6.35;;;;;;;;;;4952287;28;20345;-63
2022/10/31 02:28:42;;;;;;;14.73;6.55;;;;;;;;;;4969539;28;20444;-63
2022/10/31 02:31:10;;;;;;;19.33;7.10;;;;;;;;;;4969401;28;20060;-63
2022/10/31 02:33:51;;;;;;;22.55;7.38;;;;;;;;;;4969044;28;20362;-64
2022/10/31 02:36:48;;;;;;;14.35;7.03;;;;;;;;;;4951731;28;20519;-63
2022/10/31 02:39:18;;;;;;;11.88;6.38;;;;;;;;;;4969255;28;20395;-63
2022/10/31 02:42:07;;;;;;;15.90;7.35;;;;;;;;;;4952119;28;20498;-63
2022/10/31 02:44:38;;;;;;;17.55;7.18;;;;;;;;;;4969182;28;20502;-63
2022/10/31 02:47:26;;;;;;;12.63;6.10;;;;;;;;;;4969792;28;20421;-63
2022/10/31 02:50:47;;;;;;;20.67;6.97;;;;;;;;;;4952059;28;20354;-64
2022/10/31 02:53:16;;;;;;;19.05;7.00;;;;;;;;;;4964315;28;20045;-63
2022/10/31 02:55:46;;;;;;;16.55;7.13;;;;;;;;;;4970374;28;20510;-63
2022/10/31 02:58:14;;;;;;;15.23;7.80;;;;;;;;;;4968842;28;20409;-64
2022/10/31 03:01:10;;;;;;;17.83;7.45;;;;;;;;;;4969007;28;20052;-63
2022/10/31 03:03:51;;;;;;;14.63;6.55;;;;;;;;;;4950919;28;20037;-63
2022/10/31 03:06:38;;;;;;;13.25;6.40;;;;;;;;;;4950605;28;20336;-63
2022/10/31 03:09:09;;;;;;;16.40;6.05;;;;;;;;;;4968588;28;20390;-63
2022/10/31 03:12:08;;;;;;;14.45;6.50;;;;;;;;;;4968543;28;20340;-63
2022/10/31 03:14:39;;;;;;;;;;;;;;;;;;4939955;28;20434;-63
2022/10/31 03:17:08;;;;;;;11.00;6.03;;;;;;;;;;4968363;28;20255;-63
2022/10/31 03:19:38;;;;;;;15.32;6.53;;;;;;;;;;4950551;28;20341;-63
2022/10/31 03:22:21;;;;;;;14.25;7.20;;;;;;;;;;4950423;28;20384;-64
2022/10/31 03:24:48;;;;;;;13.45;6.47;;;;;;;;;;4951570;28;20341;-63
2022/10/31 03:27:17;;;;;;;13.32;6.03;;;;;;;;;;4950507;28;20424;-63
2022/10/31 03:29:43;;;;;;;12.23;5.85;;;;;;;;;;4950495;28;20388;-63
2022/10/31 03:32:16;;;;;;;11.15;6.25;;;;;;;;;;4950495;28;20133;-63
2022/10/31 03:34:43;;;;;;;12.73;6.55;;;;;;;;;;4969664;28;20068;-63
2022/10/31 03:37:10;;;;;;;15.32;6.82;;;;;;;;;;4969190;28;20420;-63
2022/10/31 03:39:37;;;;;;;10.27;5.85;;;;;;;;;;4950089;28;20444;-63
2022/10/31 03:42:10;;;;;;;11.23;5.82;;;;;;;;;;4950525;28;20507;-64
2022/10/31 03:44:35;;;;;;;14.85;6.30;;;;;;;;;;4950270;28;20471;-63
2022/10/31 03:47:02;;;;;;;13.77;5.63;;;;;;;;;;4950373;28;20451;-63
2022/10/31 03:49:28;;;;;;;15.25;6.20;;;;;;;;;;4968547;28;20429;-63
2022/10/31 03:52:21;;;;;;;13.02;6.20;;;;;;;;;;4968246;28;20399;-64
2022/10/31 03:54:54;;;;;;;15.45;6.35;;;;;;;;;;4968180;28;20463;-63
2022/10/31 03:57:37;;;;;;;17.75;5.80;;;;;;;;;;4950343;28;20341;-63
2022/10/31 04:00:06;;;;;;;12.70;5.97;;;;;;;;;;4967683;28;20472;-63
2022/10/31 04:02:33;;;;;;;14.43;5.93;;;;;;;;;;4949231;28;20033;-63
2022/10/31 04:04:59;;;;;;;11.77;6.00;;;;;;;;;;4967647;28;20467;-63
2022/10/31 04:07:28;;;;;;;12.82;6.50;;;;;;;;;;4950345;28;20441;-63
2022/10/31 04:09:55;;;;;;;15.90;6.60;;;;;;;;;;4950446;28;20510;-63
2022/10/31 04:12:21;;;;;;;15.27;5.90;;;;;;;;;;4967537;28;20427;-63
2022/10/31 04:14:48;;;;;;;10.75;5.88;;;;;;;;;;4950058;28;20076;-64
2022/10/31 04:17:16;;;;;;;13.80;6.45;;;;;;;;;;4950321;28;20502;-63
2022/10/31 04:19:41;;;;;;;9.23;4.75;;;;;;;;;;4967931;28;20025;-63
2022/10/31 04:22:07;;;;;;;16.60;6.13;;;;;;;;;;4967544;28;20049;-63
2022/10/31 04:24:32;;;;;;;13.30;6.75;;;;;;;;;;4949949;28;20021;-64
2022/10/31 04:26:57;;;;;;;13.32;5.15;;;;;;;;;;4967445;28;20373;-64
2022/10/31 04:29:23;;;;;;;17.35;5.63;;;;;;;;;;4967869;28;20460;-63
2022/10/31 04:31:48;;;;;;;10.30;5.38;;;;;;;;;;4967234;28;20410;-63
2022/10/31 04:34:14;;;;;;;13.05;5.53;;;;;;;;;;4967688;28;20435;-63
2022/10/31 04:36:39;;;;;;;19.33;5.82;;;;;;;;;;4968635;28;20397;-64
2022/10/31 04:39:04;;;;;;;8.48;5.25;;;;;;;;;;4967525;28;20037;-63
2022/10/31 04:41:29;;;;;;;12.65;5.47;;;;;;;;;;4967406;28;20437;-63
2022/10/31 04:43:55;;;;;;;11.75;5.60;;;;;;;;;;4967973;28;20400;-63
2022/10/31 04:46:20;;;;;;;11.57;5.25;;;;;;;;;;4968274;28;20375;-64
2022/10/31 04:48:45;;;;;;;11.32;5.63;;;;;;;;;;4967800;28;20457;-63
2022/10/31 04:51:11;;;;;;;13.88;6.35;;;;;;;;;;4967585;28;20427;-64
2022/10/31 04:53:37;;;;;;;10.07;5.38;;;;;;;;;;4949747;28;20337;-63
2022/10/31 04:56:03;;;;;;;10.75;5.13;;;;;;;;;;4967777;28;20511;-63
2022/10/31 04:58:28;;;;;;;13.25;5.63;;;;;;;;;;4967274;28;20453;-63
2022/10/31 05:00:54;;;;;;;11.15;5.32;;;;;;;;;;4967304;28;20112;-63
2022/10/31 05:03:19;;;;;;;10.80;5.47;;;;;;;;;;4967793;28;20448;-63
2022/10/31 05:05:45;;;;;;;9.48;5.35;;;;;;;;;;4967144;28;20317;-63
2022/10/31 05:08:10;;;;;;;11.27;5.45;;;;;;;;;;4968986;28;20332;-63
2022/10/31 05:10:36;;;;;;;16.83;5.57;;;;;;;;;;4968085;28;20428;-63
2022/10/31 05:13:02;;;;;;;13.60;6.40;;;;;;;;;;4967143;28;20053;-64
2022/10/31 05:15:28;;;;;;;9.98;5.13;;;;;;;;;;4970673;28;20464;-63
2022/10/31 05:17:54;;;;;;;9.18;5.88;;;;;;;;;;4971385;28;20527;-63
2022/10/31 05:20:21;;;;;;;11.52;5.20;;;;;;;;;;4970516;28;20471;-64
2022/10/31 05:22:49;;;;;;;14.10;4.75;;;;;;;;;;4971868;28;20464;-64
2022/10/31 05:25:15;;;;;;;10.38;4.88;;;;;;;;;;4970541;28;20523;-63
2022/10/31 05:27:41;;;;;;;13.20;5.18;;;;;;;;;;4971605;28;20103;-63
2022/10/31 05:30:08;;;;;;;12.30;5.38;;;;;;;;;;4971234;28;20026;-63
2022/10/31 05:32:43;;;;;;;10.75;5.45;;;;;;;;;;4970412;28;20448;-63
2022/10/31 05:35:11;;;;;;;9.73;5.22;;;;;;;;;;4969899;28;20492;-64
2022/10/31 05:37:36;;;;;;;13.40;6.30;;;;;;;;;;4970295;28;20393;-63
2022/10/31 05:40:03;;;;;;;16.23;5.88;;;;;;;;;;4970422;28;20234;-64
2022/10/31 05:42:28;;;;;;;12.95;5.93;;;;;;;;;;4970105;28;20487;-64
2022/10/31 05:44:54;;;;;;;12.23;5.88;;;;;;;;;;4971018;28;20467;-63
2022/10/31 05:47:19;;;;;;;15.57;6.28;;;;;;;;;;4972058;28;20424;-63
2022/10/31 05:49:44;;;;;;;12.25;5.78;;;;;;;;;;4969736;28;20052;-63
2022/10/31 05:52:10;;;;;;;12.70;5.85;;;;;;;;;;4970011;28;20441;-64
2022/10/31 05:54:35;;;;;;;9.40;5.35;;;;;;;;;;4971542;28;20502;-64
2022/10/31 05:57:00;;;;;;;14.60;6.20;;;;;;;;;;4970001;28;20514;-64
2022/10/31 05:59:25;;;;;;;14.98;5.65;;;;;;;;;;4969932;28;20590;-63
2022/10/31 06:01:51;;;;;;;13.15;6.22;;;;;;;;;;4951864;28;20375;-63
2022/10/31 06:04:16;;;;;;;20.55;5.72;;;;;;;;;;4970038;28;20355;-64
2022/10/31 06:06:41;;;;;;;14.43;6.22;;;;;;;;;;4970022;28;20487;-63
2022/10/31 06:09:07;;;;;;;11.70;5.00;;;;;;;;;;4969496;28;20471;-63
2022/10/31 06:11:32;;;;;;;12.05;6.53;;;;;;;;;;4970066;28;20456;-63
2022/10/31 06:13:57;;;;;;;11.75;5.30;;;;;;;;;;4969463;28;20437;-63
2022/10/31 06:16:23;;;;;;;11.93;5.28;;;;;;;;;;4969421;28;20459;-63
2022/10/31 06:18:48;;;;;;;9.40;5.10;;;;;;;;;;4969502;28;20452;-63
2022/10/31 06:21:13;;;;;;;13.68;6.22;;;;;;;;;;4969606;28;20559;-63
2022/10/31 06:23:39;;;;;;;14.88;5.88;;;;;;;;;;4969487;28;20457;-63
2022/10/31 06:26:04;;;;;;;11.35;5.13;;;;;;;;;;4968950;28;20437;-63
2022/10/31 06:28:29;;;;;;;16.08;5.38;;;;;;;;;;4970176;28;20448;-64
2022/10/31 06:30:55;;;;;;;10.50;5.70;;;;;;;;;;4969753;28;20056;-63
2022/10/31 06:33:20;;;;;;;9.32;4.82;;;;;;;;;;4969464;28;20359;-63
2022/10/31 06:35:46;;;;;;;11.88;5.43;;;;;;;;;;4969332;28;20029;-63
2022/10/31 06:38:12;;;;;;;9.60;5.05;;;;;;;;;;4969175;28;20516;-63
2022/10/31 06:40:39;;;;;;;10.60;5.82;;;;;;;;;;4969212;28;20454;-63
2022/10/31 06:43:05;;;;;;;13.00;5.47;;;;;;;;;;4951006;28;20352;-63
2022/10/31 06:45:31;;;;;;;10.85;5.45;;;;;;;;;;4951140;28;20388;-63
2022/10/31 06:47:56;;;;;;;11.82;5.47;;;;;;;;;;4971117;28;20041;-63
2022/10/31 06:50:22;;;;;;;12.45;6.28;;;;;;;;;;4968685;28;20048;-63
2022/10/31 06:52:52;;;;;;;10.27;5.45;;;;;;;;;;4969654;28;20424;-63
2022/10/31 06:55:17;;;;;;;8.35;5.13;;;;;;;;;;4969360;28;20482;-63
2022/10/31 06:57:50;;;;;;;11.82;5.82;;;;;;;;;;4970237;28;20329;-63
2022/10/31 07:00:15;;;;;;;10.55;5.10;;;;;;;;;;4968633;28;20092;-64
2022/10/31 07:02:40;;;;;;;11.57;5.65;;;;;;;;;;4969701;28;20052;-63
2022/10/31 07:05:06;;;;;;;14.45;6.78;;;;;;;;;;4968571;28;20436;-63
2022/10/31 07:07:31;;;;;;;17.45;5.93;;;;;;;;;;4962691;28;20456;-64
2022/10/31 07:09:57;;;;;;;15.95;6.45;;;;;;;;;;4266970;28;10001727;-63
2022/10/31 07:12:22;;;;;;;18.10;6.82;;;;;;;;;;4969607;28;20083;-63
2022/10/31 07:14:47;;;;;;;12.57;6.80;;;;;;;;;;4968466;28;20463;-63
2022/10/31 07:17:12;;;;;;;12.82;6.78;;;;;;;;;;4968383;28;20364;-63
2022/10/31 07:19:38;;;;;;;15.48;7.68;;;;;;;;;;4968448;28;20431;-67
2022/10/31 07:22:03;;;;;;;8.90;5.18;;;;;;;;;;4968563;28;20443;-64
2022/10/31 07:24:30;;;;;;;9.35;4.35;;;;;;;;;;4968064;28;20507;-64
2022/10/31 07:26:55;;;;;;;8.38;4.80;;;;;;;;;;4969300;28;20349;-64
2022/10/31 07:29:20;;;;;;;17.55;5.93;;;;;;;;;;4968733;28;20083;-64
2022/10/31 07:31:46;;;;;;;25.65;8.35;;;;;;;;;;4967992;28;20463;-63
2022/10/31 07:34:11;;;;;;;15.25;7.15;;;;;;;;;;4968094;28;20472;-64
2022/10/31 07:36:37;;;;;;;37.78;14.73;;;;;;;;;;4967883;28;20376;-63
2022/10/31 07:39:02;;;;;;;229.65;121.80;;;;;;;;;;4967406;28;20346;-64
2022/10/31 07:41:27;;;;;;;149.02;65.72;;;;;;;;;;4967902;28;20384;-63
2022/10/31 07:43:53;;;;;;;58.45;28.35;;;;;;;;;;4967793;28;20423;-63
2022/10/31 07:46:18;;;;;;;40.05;17.73;;;;;;;;;;4967887;28;20484;-63
2022/10/31 07:48:43;;;;;;;35.47;14.48;;;;;;;;;;4967840;28;20120;-63
2022/10/31 07:51:09;;;;;;;28.00;14.15;;;;;;;;;;4967907;28;20448;-62
2022/10/31 07:53:34;;;;;;;30.13;13.75;;;;;;;;;;4976374;28;20325;-61
2022/10/31 07:55:59;;;;;;;127.60;67.00;;;;;;;;;;4987310;28;20356;-63
2022/10/31 07:58:25;;;;;;;91.28;44.55;;;;;;;;;;4987232;28;20459;-63
2022/10/31 08:00:50;;;;;;;185.20;94.43;;;;;;;;;;4987032;28;20448;-64
2022/10/31 08:03:18;;;;;;;282.10;162.18;;;;;;;;;;4986764;28;20108;-64
2022/10/31 08:05:45;;;;;;;208.02;112.10;;;;;;;;;;4986663;28;20421;-64
2022/10/31 08:08:11;;;;;;;171.27;89.60;;;;;;;;;;4986515;28;20444;-64
2022/10/31 08:10:37;;;;;;;145.65;72.55;;;;;;;;;;4986228;28;20448;-63
2022/10/31 08:13:04;;;;;;;135.55;59.03;;;;;;;;;;4986720;28;20534;-64
2022/10/31 08:15:30;;;;;;;80.63;36.35;;;;;;;;;;4987730;28;20470;-63
2022/10/31 08:17:56;;;;;;;71.60;28.67;;;;;;;;;;4986012;28;20506;-63
2022/10/31 08:20:21;;;;;;;166.45;91.78;;;;;;;;;;4987234;28;20391;-63
2022/10/31 08:22:57;;;;;;;62.22;30.85;;;;;;;;;;4989119;28;20030;-63
2022/10/31 08:25:23;;;;;;;130.60;64.18;;;;;;;;;;4987534;28;20397;-63
2022/10/31 08:27:53;;;;;;;188.85;89.75;;;;;;;;;;4986215;28;20238;-63
2022/10/31 08:30:20;;;;;;;111.65;52.35;;;;;;;;;;4988636;28;20508;-63
2022/10/31 08:32:45;;;;;;;62.97;28.95;;;;;;;;;;4987256;28;20494;-63
2022/10/31 08:35:11;;;;;;;78.03;31.50;;;;;;;;;;4986728;28;20450;-63
2022/10/31 08:37:36;;;;;;;59.25;29.55;;;;;;;;;;4987101;28;20116;-63
2022/10/31 08:40:01;;;;;;;48.20;24.40;;;;;;;;;;4987117;28;20473;-63
2022/10/31 08:42:26;;;;;;;31.75;17.65;;;;;;;;;;4986905;28;20386;-63
2022/10/31 08:44:52;;;;;;;42.03;21.17;;;;;;;;;;4987614;28;20499;-63
2022/10/31 08:47:17;;;;;;;37.30;18.08;;;;;;;;;;4986984;28;20527;-63
2022/10/31 08:49:42;;;;;;;30.27;16.48;;;;;;;;;;4988124;28;20420;-63
2022/10/31 08:52:08;;;;;;;38.63;18.30;;;;;;;;;;4990560;28;20428;-63
2022/10/31 08:54:33;;;;;;;46.05;21.95;;;;;;;;;;4989289;28;20025;-63
2022/10/31 08:56:58;;;;;;;42.15;21.95;;;;;;;;;;4992412;28;20343;-62
2022/10/31 08:59:24;;;;;;;41.00;17.45;;;;;;;;;;4989713;28;20387;-63
2022/10/31 09:01:49;;;;;;;26.58;12.60;;;;;;;;;;4972275;28;20340;-62
2022/10/31 09:04:14;;;;;;;96.60;50.03;;;;;;;;;;4990571;28;20348;-62
2022/10/31 09:06:40;;;;;;;99.30;50.22;;;;;;;;;;4989021;28;20433;-62
2022/10/31 09:09:05;;;;;;;45.47;23.58;;;;;;;;;;4991190;28;20410;-63
2022/10/31 09:11:31;;;;;;;35.10;15.10;;;;;;;;;;4992112;28;21448;-63
2022/10/31 09:13:56;;;;;;;34.58;14.60;;;;;;;;;;4991089;28;20515;-62
2022/10/31 09:16:21;;;;;;;27.27;12.60;;;;;;;;;;4989917;28;20515;-63
2022/10/31 09:18:47;;;;;;;22.80;12.35;;;;;;;;;;4989719;28;20052;-63
2022/10/31 09:21:12;;;;;;;27.25;12.52;;;;;;;;;;4990822;28;20424;-63
2022/10/31 09:23:37;;;;;;;20.10;10.65;;;;;;;;;;4990338;28;20360;-63
2022/10/31 09:26:03;;;;;;;24.67;11.52;;;;;;;;;;4990409;28;20055;-63
2022/10/31 09:28:28;;;;;;;25.77;9.93;;;;;;;;;;4990260;28;20479;-64
2022/10/31 09:30:54;;;;;;;26.83;12.05;;;;;;;;;;4990768;28;20383;-63
2022/10/31 09:33:20;;;;;;;15.60;9.25;;;;;;;;;;4989558;28;20395;-63
2022/10/31 09:35:45;;;;;;;18.23;9.85;;;;;;;;;;4990435;28;20025;-63
2022/10/31 09:38:16;;;;;;;21.15;9.82;;;;;;;;;;4991099;28;20447;-63
2022/10/31 09:40:43;;;;;;;21.90;10.50;;;;;;;;;;4989849;28;20037;-64
2022/10/31 09:43:43;;;;;;;22.85;10.63;;;;;;;;;;4989914;28;20047;-63
2022/10/31 09:46:14;;;;;;;22.67;9.77;;;;;;;;;;4989905;28;20452;-63
2022/10/31 09:49:04;;;;;;;17.05;9.65;;;;;;;;;;4989865;28;20351;-62
2022/10/31 09:51:33;;;;;;;24.40;9.45;;;;;;;;;;4990002;28;20407;-64
2022/10/31 09:54:21;;;;;;;22.60;10.52;;;;;;;;;;4989647;28;20494;-62
2022/10/31 09:56:47;;;;;;;21.33;10.70;;;;;;;;;;4989706;28;20399;-62
2022/10/31 09:59:21;;;;;;;16.42;9.13;;;;;;;;;;4972049;28;20414;-63
2022/10/31 10:01:56;;;;;;;24.63;9.70;;;;;;;;;;4970644;28;20577;-64
2022/10/31 10:04:36;;;;;;;19.67;9.75;;;;;;;;;;4971047;28;20021;-64
2022/10/31 10:07:07;;;;;;;28.20;10.23;;;;;;;;;;4963976;28;20375;-63
2022/10/31 10:09:33;;;;;;;30.80;9.77;;;;;;;;;;4950785;28;20116;-64
2022/10/31 10:12:14;;;;;;;32.92;10.80;;;;;;;;;;4969584;28;20440;-63
2022/10/31 10:14:46;;;;;;;29.88;14.85;;;;;;;;;;4969491;28;20413;-62
2022/10/31 10:17:43;;;;;;;31.50;14.20;;;;;;;;;;4970379;28;20429;-62
2022/10/31 10:20:31;;;;;;;46.10;18.98;;;;;;;;;;4934565;28;20403;-62
2022/10/31 10:23:17;;;;;;;31.60;12.30;;;;;;;;;;4802762;28;10001488;-64
2022/10/31 10:25:44;;;;;;;32.40;14.32;;;;;;;;;;4969325;28;20638;-64
2022/10/31 10:28:23;;;;;;;43.38;20.20;;;;;;;;;;4958779;28;20435;-64
2022/10/31 10:31:01;;;;;;;33.00;16.27;;;;;;;;;;4981963;28;20032;-63
2022/10/31 10:33:32;;;;;;;32.72;13.82;;;;;;;;;;4962645;28;20348;-63
2022/10/31 10:36:05;;;;;;;38.40;14.02;;;;;;;;;;4985178;28;20511;-63
2022/10/31 10:38:38;;;;;;;31.85;13.10;;;;;;;;;;4963470;28;20482;-63
2022/10/31 10:41:08;;;;;;;28.98;12.57;;;;;;;;;;4983523;28;20420;-63
2022/10/31 10:43:35;;;;;;;23.88;11.80;;;;;;;;;;4981422;28;20025;-63
2022/10/31 10:49:10;;;;;;;28.55;11.18;;;;;;;;;;4987065;28;20494;-63
2022/10/31 10:51:59;;;;;;;26.02;10.05;;;;;;;;;;4987301;28;20037;-64
2022/10/31 10:54:40;;;;;;;31.85;12.55;;;;;;;;;;4979955;28;20506;-63
2022/10/31 10:57:11;;;;;;;24.63;8.75;;;;;;;;;;4985705;28;20048;-63
2022/10/31 10:59:36;;;;;;;23.33;9.50;;;;;;;;;;4987616;28;20384;-64
2022/10/31 11:02:03;;;;;;;51.42;11.65;;;;;;;;;;4970788;28;20432;-61
2022/10/31 11:04:32;;;;;;;35.92;8.88;;;;;;;;;;4988276;28;20408;-61
2022/10/31 11:07:15;;;;;;;37.15;9.43;;;;;;;;;;4988729;28;20424;-62
2022/10/31 11:09:41;;;;;;;30.52;9.02;;;;;;;;;;4988403;28;20068;-62
2022/10/31 11:12:16;;;;;;;21.55;8.07;;;;;;;;;;4987940;28;20450;-62
2022/10/31 11:14:49;;;;;;;21.17;8.18;;;;;;;;;;4987658;28;20405;-62
2022/10/31 11:17:25;;;;;;;22.13;7.43;;;;;;;;;;4971396;28;20447;-62
2022/10/31 11:20:19;;;;;;;16.73;7.25;;;;;;;;;;4970510;28;20087;-62
2022/10/31 11:22:47;;;;;;;43.80;7.65;;;;;;;;;;4977712;28;20432;-62
2022/10/31 11:25:23;;;;;;;19.95;7.15;;;;;;;;;;4983845;28;20455;-64
2022/10/31 11:28:10;;;;;;;146.57;69.63;;;;;;;;;;4981325;28;20418;-63
2022/10/31 11:30:53;;;;;;;26.42;8.70;;;;;;;;;;4986040;28;20470;-64
2022/10/31 11:33:44;;;;;;;25.13;12.02;;;;;;;;;;4968240;28;20372;-63
2022/10/31 11:36:23;;;;;;;17.15;6.97;;;;;;;;;;4985482;28;20458;-64
2022/10/31 11:38:48;;;;;;;;;;;;;;;;;;4987717;28;20331;-63
2022/10/31 11:41:18;;;;;;;24.00;5.70;;;;;;;;;;4987584;28;20254;-63
2022/10/31 11:43:53;;;;;;;24.42;6.00;;;;;;;;;;4983009;28;20325;-63
2022/10/31 11:46:22;;;;;;;18.33;5.78;;;;;;;;;;4987424;28;20436;-64
2022/10/31 11:48:50;;;;;;;62.05;27.42;;;;;;;;;;4996863;28;20389;-63
2022/10/31 11:51:32;;;;;;;24.60;7.78;;;;;;;;;;5007224;28;20439;-63
2022/10/31 11:53:58;;;;;;;31.15;16.67;;;;;;;;;;5007452;28;20420;-63
2022/10/31 11:56:24;;;;;;;48.38;20.92;;;;;;;;;;5007285;28;20531;-64
2022/10/31 11:59:01;;;;;;;37.42;17.10;;;;;;;;;;5005620;28;20427;-63
2022/10/31 12:01:30;;;;;;;28.88;14.35;;;;;;;;;;5007728;28;20458;-63
2022/10/31 12:04:09;;;;;;;;;;;;;;;;;;5007633;28;20410;-64
2022/10/31 12:06:40;;;;;;;28.13;10.23;;;;;;;;;;5007452;28;20382;-63
2022/10/31 12:09:20;;;;;;;29.10;10.10;;;;;;;;;;5006995;28;20424;-63
2022/10/31 12:12:10;;;;;;;19.52;7.60;;;;;;;;;;4984709;28;20410;-63
2022/10/31 12:14:41;;;;;;;30.80;14.15;;;;;;;;;;4984135;28;20436;-63
2022/10/31 12:17:36;;;;;;;21.75;8.27;;;;;;;;;;4986294;28;20375;-63
2022/10/31 12:20:07;;;;;;;71.25;9.25;;;;;;;;;;4985936;28;20506;-63
2022/10/31 12:22:50;;;;;;;30.45;7.55;;;;;;;;;;4987368;28;20451;-63
2022/10/31 12:25:26;;;;;;;51.58;8.13;;;;;;;;;;4990404;28;20054;-64
2022/10/31 12:27:54;;;;;;;30.35;7.75;;;;;;;;;;4991810;28;20175;-64
2022/10/31 12:30:22;;;;;;;24.70;7.20;;;;;;;;;;4992424;28;20091;-64
2022/10/31 12:33:00;;;;;;;15.68;6.93;;;;;;;;;;4974236;28;20112;-63
2022/10/31 12:35:25;;;;;;;33.53;5.97;;;;;;;;;;4991975;28;20380;-64
2022/10/31 12:37:50;;;;;;;27.85;9.48;;;;;;;;;;4992761;28;20321;-64
2022/10/31 12:40:28;;;;;;;31.05;9.73;;;;;;;;;;4986853;28;20440;-64
2022/10/31 12:43:14;;;;;;;30.35;9.27;;;;;;;;;;4964346;28;20345;-64
2022/10/31 12:45:44;;;;;;;33.75;10.95;;;;;;;;;;4973678;28;20438;-65
2022/10/31 12:48:24;;;;;;;16.88;6.97;;;;;;;;;;4971342;28;20472;-65
2022/10/31 12:51:04;;;;;;;21.02;9.05;;;;;;;;;;4987802;28;20546;-65
2022/10/31 12:53:55;;;;;;;21.88;7.20;;;;;;;;;;4992120;28;20456;-68
2022/10/31 12:56:47;;;;;;;20.50;7.18;;;;;;;;;;4991763;28;20098;-64
2022/10/31 12:59:37;;;;;;;29.17;7.40;;;;;;;;;;4974593;28;20446;-64
2022/10/31 13:02:14;;;;;;;43.30;18.90;;;;;;;;;;4985180;28;20398;-64
2022/10/31 13:04:43;;;;;;;18.95;7.50;;;;;;;;;;4990247;28;20448;-65
2022/10/31 13:07:23;;;;;;;35.00;9.82;;;;;;;;;;4990991;28;20048;-64
2022/10/31 13:09:56;;;;;;;18.45;6.72;;;;;;;;;;4972956;28;20052;-64
2022/10/31 13:12:22;;;;;;;31.95;6.97;;;;;;;;;;4992627;28;20396;-65
2022/10/31 13:14:51;;;;;;;19.08;7.45;;;;;;;;;;4989807;28;20348;-64
2022/10/31 13:17:30;;;;;;;20.27;8.05;;;;;;;;;;4991185;28;20479;-64
2022/10/31 13:20:27;;;;;;;17.48;6.60;;;;;;;;;;4973112;28;20183;-65
2022/10/31 13:22:55;;;;;;;20.08;6.90;;;;;;;;;;4969230;28;20454;-64
2022/10/31 13:25:28;;;;;;;17.25;5.70;;;;;;;;;;4989879;28;20372;-64
2022/10/31 13:27:57;;;;;;;14.82;7.20;;;;;;;;;;4989707;28;20444;-64
2022/10/31 13:30:25;;;;;;;25.25;7.90;;;;;;;;;;4973279;28;20417;-64
2022/10/31 13:33:04;;;;;;;16.37;6.43;;;;;;;;;;4991926;28;20048;-64
2022/10/31 13:35:59;;;;;;;22.85;6.82;;;;;;;;;;4966042;28;20792;-64
2022/10/31 13:38:41;;;;;;;18.33;5.40;;;;;;;;;;4971533;28;20432;-64
2022/10/31 13:41:34;;;;;;;15.77;4.60;;;;;;;;;;4953731;28;20025;-63
2022/10/31 13:44:25;;;;;;;62.03;16.95;;;;;;;;;;4971214;28;20437;-64
2022/10/31 13:46:53;;;;;;;173.85;81.65;;;;;;;;;;4970845;28;20452;-64
2022/10/31 13:49:24;;;;;;;298.38;162.85;;;;;;;;;;4970908;28;20087;-64
2022/10/31 13:51:52;;;;;;;1080.75;693.97;;;;;;;;;;4972766;28;20387;-64
2022/10/31 13:54:32;;;;;;;1138.80;751.80;;;;;;;;;;4986231;28;20423;-63
2022/10/31 13:56:58;;;;;;;1143.97;751.13;;;;;;;;;;4991210;28;20071;-64
2022/10/31 13:59:26;;;;;;;1004.15;694.63;;;;;;;;;;4990224;28;20456;-70
2022/10/31 14:06:57;;;;;;;832.03;584.88;;;;;;;;;;5066358;27;20765;-59
2022/10/31 14:09:40;;;;;;;662.78;475.40;;;;;;;;;;5044273;28;20058;-60
2022/10/31 14:12:25;;;;;;;675.30;484.02;;;;;;;;;;5043756;28;20449;-60
2022/10/31 14:14:53;;;;;;;620.35;440.20;;;;;;;;;;5045786;28;20340;-61
2022/10/31 14:17:25;;;;;;;521.03;346.50;;;;;;;;;;5044840;28;20462;-60
2022/10/31 14:20:00;;;;;;;531.38;369.67;;;;;;;;;;5044566;28;20318;-61
2022/10/31 14:22:29;;;;;;;468.23;308.13;;;;;;;;;;5045367;28;20319;-60
2022/10/31 14:24:55;;;;;;;474.52;311.63;;;;;;;;;;5045662;28;20439;-61
2022/10/31 14:27:21;;;;;;;469.20;306.77;;;;;;;;;;5045277;28;20568;-61
2022/10/31 14:29:47;;;;;;;437.75;281.17;;;;;;;;;;5045195;28;20019;-60
2022/10/31 14:32:13;;;;;;;431.75;279.38;;;;;;;;;;5043940;28;20097;-60
2022/10/31 14:34:50;;;;;;;405.83;246.45;;;;;;;;;;5045479;28;20405;-61
2022/10/31 14:37:22;;;;;;;368.05;211.30;;;;;;;;;;5045363;28;20458;-60
2022/10/31 14:39:47;;;;;;;306.13;179.65;;;;;;;;;;5046339;28;20422;-61
2022/10/31 14:42:32;;;;;;;297.25;164.35;;;;;;;;;;5045400;28;20445;-60
2022/10/31 14:45:15;;;;;;;220.35;124.13;;;;;;;;;;5043281;28;20374;-61
2022/10/31 14:48:12;;;;;;;237.98;129.45;;;;;;;;;;5026604;28;20345;-60
2022/10/31 14:50:49;;;;;;;186.40;106.25;;;;;;;;;;5045301;28;20358;-59